KIKK/IKK METAR and TAF weather

Enter ICAO airport designator
Station Type Date Time Source
KIKK METAR 2023/01/30 11:55 UTC NOAA

KIKK 301155Z AUTO 32010KT 10SM OVC026 M08/M11 A3035 RMK AO2 T10801110 11050 21080


Station Type Date Time Source
KIKK Decoded METAR 2023/01/30 11:55 UTC NOAA

Kankakee, Greater Kankakee Airport, IL, United States (KIKK) 41-04-17N 087-50-47W
Jan 30, 2023 - 06:55 AM EST / 2023.01.30 1155 UTC
Wind: from the NW (320 degrees) at 12 MPH (10 KT):0
Visibility: 10 mile(s):0
Sky conditions: overcast
Temperature: 17.6 F (-8.0 C)
Windchill: 5 F (-15 C):1
Dew Point: 12.2 F (-11.0 C)
Relative Humidity: 78%
Pressure (altimeter): 30.35 in. Hg (1027 hPa)
ob: KIKK 301155Z AUTO 32010KT 10SM OVC026 M08/M11 A3035 RMK AO2 T10801110 11050 21080
cycle: 12

Station Type Date Time Source
KIKK TAF UTC NOAA

Error!

Example: see airport list